sensor_id;sensor_type;location;lat;lon;timestamp;P1;durP1;ratioP1;P2;durP2;ratioP2
14342;SDS011;7255;53.596;9.960;2023-12-14T00:01:47;4.23;;;2.43;;
14342;SDS011;7255;53.596;9.960;2023-12-14T00:04:13;2.50;;;2.30;;
14342;SDS011;7255;53.596;9.960;2023-12-14T00:06:41;3.90;;;2.10;;
14342;SDS011;7255;53.596;9.960;2023-12-14T00:09:07;4.80;;;2.47;;
14342;SDS011;7255;53.596;9.960;2023-12-14T00:11:37;4.97;;;2.37;;
14342;SDS011;7255;53.596;9.960;2023-12-14T00:14:03;4.80;;;2.77;;
14342;SDS011;7255;53.596;9.960;2023-12-14T00:16:30;2.57;;;2.37;;
14342;SDS011;7255;53.596;9.960;2023-12-14T00:18:56;4.30;;;2.70;;
14342;SDS011;7255;53.596;9.960;2023-12-14T00:21:23;3.47;;;2.50;;
14342;SDS011;7255;53.596;9.960;2023-12-14T00:23:50;2.47;;;2.27;;
14342;SDS011;7255;53.596;9.960;2023-12-14T00:26:17;2.70;;;2.37;;
14342;SDS011;7255;53.596;9.960;2023-12-14T00:28:43;3.37;;;2.60;;
14342;SDS011;7255;53.596;9.960;2023-12-14T00:31:09;2.53;;;2.27;;
14342;SDS011;7255;53.596;9.960;2023-12-14T00:33:36;2.87;;;2.20;;
14342;SDS011;7255;53.596;9.960;2023-12-14T00:36:02;2.50;;;2.30;;
14342;SDS011;7255;53.596;9.960;2023-12-14T00:38:29;3.70;;;2.47;;
14342;SDS011;7255;53.596;9.960;2023-12-14T00:40:56;5.07;;;2.43;;
14342;SDS011;7255;53.596;9.960;2023-12-14T00:43:23;3.97;;;2.07;;
14342;SDS011;7255;53.596;9.960;2023-12-14T00:45:49;3.37;;;2.17;;
14342;SDS011;7255;53.596;9.960;2023-12-14T00:48:17;2.33;;;2.10;;
14342;SDS011;7255;53.596;9.960;2023-12-14T00:50:43;4.40;;;2.30;;
14342;SDS011;7255;53.596;9.960;2023-12-14T00:53:10;2.80;;;1.90;;
14342;SDS011;7255;53.596;9.960;2023-12-14T00:55:36;2.63;;;2.10;;
14342;SDS011;7255;53.596;9.960;2023-12-14T00:58:04;3.00;;;2.03;;
14342;SDS011;7255;53.596;9.960;2023-12-14T01:00:30;4.87;;;2.20;;
14342;SDS011;7255;53.596;9.960;2023-12-14T01:02:56;1.70;;;1.60;;
14342;SDS011;7255;53.596;9.960;2023-12-14T01:05:22;6.67;;;2.27;;
14342;SDS011;7255;53.596;9.960;2023-12-14T01:07:49;2.60;;;2.00;;
14342;SDS011;7255;53.596;9.960;2023-12-14T01:10:15;2.63;;;1.80;;
14342;SDS011;7255;53.596;9.960;2023-12-14T01:12:42;1.70;;;1.60;;
14342;SDS011;7255;53.596;9.960;2023-12-14T01:15:10;2.53;;;1.97;;
14342;SDS011;7255;53.596;9.960;2023-12-14T01:17:36;4.10;;;1.60;;
14342;SDS011;7255;53.596;9.960;2023-12-14T01:20:04;3.50;;;2.90;;
14342;SDS011;7255;53.596;9.960;2023-12-14T01:22:31;2.13;;;1.70;;
14342;SDS011;7255;53.596;9.960;2023-12-14T01:24:58;2.13;;;1.93;;
14342;SDS011;7255;53.596;9.960;2023-12-14T01:27:24;4.33;;;1.73;;
14342;SDS011;7255;53.596;9.960;2023-12-14T01:29:51;2.57;;;2.37;;
14342;SDS011;7255;53.596;9.960;2023-12-14T01:32:19;1.80;;;1.70;;
14342;SDS011;7255;53.596;9.960;2023-12-14T01:34:45;2.20;;;2.00;;
14342;SDS011;7255;53.596;9.960;2023-12-14T01:37:11;4.17;;;1.90;;
14342;SDS011;7255;53.596;9.960;2023-12-14T01:39:37;1.97;;;1.70;;
14342;SDS011;7255;53.596;9.960;2023-12-14T01:42:04;3.37;;;2.20;;
14342;SDS011;7255;53.596;9.960;2023-12-14T01:44:30;1.83;;;1.73;;
14342;SDS011;7255;53.596;9.960;2023-12-14T01:46:56;2.60;;;2.07;;
14342;SDS011;7255;53.596;9.960;2023-12-14T01:49:24;3.70;;;1.80;;
14342;SDS011;7255;53.596;9.960;2023-12-14T01:51:50;2.10;;;1.90;;
14342;SDS011;7255;53.596;9.960;2023-12-14T01:54:17;3.40;;;2.10;;
14342;SDS011;7255;53.596;9.960;2023-12-14T01:56:43;2.03;;;1.93;;
14342;SDS011;7255;53.596;9.960;2023-12-14T01:59:11;1.90;;;1.57;;
14342;SDS011;7255;53.596;9.960;2023-12-14T02:01:38;4.67;;;1.93;;
14342;SDS011;7255;53.596;9.960;2023-12-14T02:04:07;2.03;;;1.87;;
14342;SDS011;7255;53.596;9.960;2023-12-14T02:06:36;3.27;;;2.27;;
14342;SDS011;7255;53.596;9.960;2023-12-14T02:09:03;5.13;;;2.27;;
14342;SDS011;7255;53.596;9.960;2023-12-14T02:11:29;4.43;;;2.10;;
14342;SDS011;7255;53.596;9.960;2023-12-14T02:13:55;1.97;;;1.87;;
14342;SDS011;7255;53.596;9.960;2023-12-14T02:16:22;2.17;;;2.00;;
14342;SDS011;7255;53.596;9.960;2023-12-14T02:18:48;1.87;;;1.77;;
14342;SDS011;7255;53.596;9.960;2023-12-14T02:21:15;3.13;;;1.70;;
14342;SDS011;7255;53.596;9.960;2023-12-14T02:23:45;2.87;;;2.13;;
14342;SDS011;7255;53.596;9.960;2023-12-14T02:26:11;3.53;;;2.30;;
14342;SDS011;7255;53.596;9.960;2023-12-14T02:28:38;2.47;;;1.90;;
14342;SDS011;7255;53.596;9.960;2023-12-14T02:31:04;4.77;;;1.80;;
14342;SDS011;7255;53.596;9.960;2023-12-14T02:33:31;2.80;;;1.87;;
14342;SDS011;7255;53.596;9.960;2023-12-14T02:35:57;3.70;;;2.03;;
14342;SDS011;7255;53.596;9.960;2023-12-14T02:38:24;3.13;;;2.50;;
14342;SDS011;7255;53.596;9.960;2023-12-14T02:40:51;2.30;;;1.97;;
14342;SDS011;7255;53.596;9.960;2023-12-14T02:43:18;5.43;;;2.00;;
14342;SDS011;7255;53.596;9.960;2023-12-14T02:45:44;3.80;;;1.80;;
14342;SDS011;7255;53.596;9.960;2023-12-14T02:48:11;1.80;;;1.70;;
14342;SDS011;7255;53.596;9.960;2023-12-14T02:50:37;3.23;;;1.97;;
14342;SDS011;7255;53.596;9.960;2023-12-14T02:53:03;4.40;;;4.00;;
14342;SDS011;7255;53.596;9.960;2023-12-14T02:55:30;2.27;;;2.00;;
14342;SDS011;7255;53.596;9.960;2023-12-14T02:57:57;1.90;;;1.80;;
14342;SDS011;7255;53.596;9.960;2023-12-14T03:00:24;2.03;;;1.93;;
14342;SDS011;7255;53.596;9.960;2023-12-14T03:02:50;2.50;;;2.30;;
14342;SDS011;7255;53.596;9.960;2023-12-14T03:05:17;4.60;;;2.60;;
14342;SDS011;7255;53.596;9.960;2023-12-14T03:07:43;8.47;;;2.80;;
14342;SDS011;7255;53.596;9.960;2023-12-14T03:10:10;2.60;;;2.40;;
14342;SDS011;7255;53.596;9.960;2023-12-14T03:12:36;3.77;;;1.90;;
14342;SDS011;7255;53.596;9.960;2023-12-14T03:15:04;2.57;;;2.37;;
14342;SDS011;7255;53.596;9.960;2023-12-14T03:17:31;5.67;;;2.30;;
14342;SDS011;7255;53.596;9.960;2023-12-14T03:19:57;4.37;;;2.50;;
14342;SDS011;7255;53.596;9.960;2023-12-14T03:22:23;2.83;;;2.17;;
14342;SDS011;7255;53.596;9.960;2023-12-14T03:24:50;3.47;;;2.37;;
14342;SDS011;7255;53.596;9.960;2023-12-14T03:27:16;4.43;;;1.90;;
14342;SDS011;7255;53.596;9.960;2023-12-14T03:29:42;5.77;;;2.43;;
14342;SDS011;7255;53.596;9.960;2023-12-14T03:32:10;2.50;;;2.30;;
14342;SDS011;7255;53.596;9.960;2023-12-14T03:34:36;2.37;;;2.10;;
14342;SDS011;7255;53.596;9.960;2023-12-14T03:37:03;3.27;;;2.20;;
14342;SDS011;7255;53.596;9.960;2023-12-14T03:39:29;3.27;;;2.00;;
14342;SDS011;7255;53.596;9.960;2023-12-14T03:41:55;2.00;;;1.80;;
14342;SDS011;7255;53.596;9.960;2023-12-14T03:44:22;2.00;;;1.90;;
14342;SDS011;7255;53.596;9.960;2023-12-14T03:46:49;4.00;;;2.20;;
14342;SDS011;7255;53.596;9.960;2023-12-14T03:49:16;2.97;;;2.37;;
14342;SDS011;7255;53.596;9.960;2023-12-14T03:51:43;2.67;;;1.80;;
14342;SDS011;7255;53.596;9.960;2023-12-14T03:54:09;2.83;;;1.70;;
14342;SDS011;7255;53.596;9.960;2023-12-14T03:56:35;2.53;;;2.30;;
14342;SDS011;7255;53.596;9.960;2023-12-14T03:59:02;3.37;;;2.33;;
14342;SDS011;7255;53.596;9.960;2023-12-14T04:01:28;2.53;;;1.90;;
14342;SDS011;7255;53.596;9.960;2023-12-14T04:03:55;3.20;;;2.07;;
14342;SDS011;7255;53.596;9.960;2023-12-14T04:06:22;2.50;;;2.30;;
14342;SDS011;7255;53.596;9.960;2023-12-14T04:08:48;3.77;;;2.10;;
14342;SDS011;7255;53.596;9.960;2023-12-14T04:11:15;5.13;;;2.00;;
14342;SDS011;7255;53.596;9.960;2023-12-14T04:13:41;2.43;;;2.20;;
14342;SDS011;7255;53.596;9.960;2023-12-14T04:16:08;3.13;;;2.00;;
14342;SDS011;7255;53.596;9.960;2023-12-14T04:18:34;4.87;;;2.53;;
14342;SDS011;7255;53.596;9.960;2023-12-14T04:21:02;3.63;;;2.30;;
14342;SDS011;7255;53.596;9.960;2023-12-14T04:23:30;2.83;;;2.20;;
14342;SDS011;7255;53.596;9.960;2023-12-14T04:25:56;3.23;;;2.37;;
14342;SDS011;7255;53.596;9.960;2023-12-14T04:28:23;2.50;;;2.03;;
14342;SDS011;7255;53.596;9.960;2023-12-14T04:30:49;3.90;;;2.00;;
14342;SDS011;7255;53.596;9.960;2023-12-14T04:33:15;3.03;;;1.97;;
14342;SDS011;7255;53.596;9.960;2023-12-14T04:35:42;4.53;;;2.50;;
14342;SDS011;7255;53.596;9.960;2023-12-14T04:38:08;2.80;;;2.13;;
14342;SDS011;7255;53.596;9.960;2023-12-14T04:40:36;3.03;;;2.23;;
14342;SDS011;7255;53.596;9.960;2023-12-14T04:43:02;3.90;;;2.50;;
14342;SDS011;7255;53.596;9.960;2023-12-14T04:45:28;3.90;;;2.40;;
14342;SDS011;7255;53.596;9.960;2023-12-14T04:47:55;4.17;;;2.67;;
14342;SDS011;7255;53.596;9.960;2023-12-14T04:50:21;3.83;;;3.03;;
14342;SDS011;7255;53.596;9.960;2023-12-14T04:52:47;3.57;;;2.43;;
14342;SDS011;7255;53.596;9.960;2023-12-14T04:55:14;4.67;;;3.10;;
14342;SDS011;7255;53.596;9.960;2023-12-14T04:57:41;8.50;;;3.20;;
14342;SDS011;7255;53.596;9.960;2023-12-14T05:00:08;3.00;;;2.67;;
14342;SDS011;7255;53.596;9.960;2023-12-14T05:02:35;3.97;;;3.30;;
14342;SDS011;7255;53.596;9.960;2023-12-14T05:05:01;3.73;;;2.80;;
14342;SDS011;7255;53.596;9.960;2023-12-14T05:07:28;4.53;;;3.37;;
14342;SDS011;7255;53.596;9.960;2023-12-14T05:09:55;3.10;;;2.87;;
14342;SDS011;7255;53.596;9.960;2023-12-14T05:12:21;3.07;;;2.73;;
14342;SDS011;7255;53.596;9.960;2023-12-14T05:14:51;7.07;;;3.53;;
14342;SDS011;7255;53.596;9.960;2023-12-14T05:17:17;3.23;;;2.93;;
14342;SDS011;7255;53.596;9.960;2023-12-14T05:19:44;3.07;;;2.80;;
14342;SDS011;7255;53.596;9.960;2023-12-14T05:22:11;4.80;;;3.10;;
14342;SDS011;7255;53.596;9.960;2023-12-14T05:24:37;3.40;;;2.97;;
14342;SDS011;7255;53.596;9.960;2023-12-14T05:27:04;3.30;;;3.00;;
14342;SDS011;7255;53.596;9.960;2023-12-14T05:29:30;3.63;;;3.07;;
14342;SDS011;7255;53.596;9.960;2023-12-14T05:31:59;3.93;;;3.10;;
14342;SDS011;7255;53.596;9.960;2023-12-14T05:34:26;3.97;;;3.07;;
14342;SDS011;7255;53.596;9.960;2023-12-14T05:36:52;4.50;;;3.00;;
14342;SDS011;7255;53.596;9.960;2023-12-14T05:39:18;3.80;;;2.60;;
14342;SDS011;7255;53.596;9.960;2023-12-14T05:41:45;4.90;;;3.40;;
14342;SDS011;7255;53.596;9.960;2023-12-14T05:44:11;3.10;;;2.80;;
14342;SDS011;7255;53.596;9.960;2023-12-14T05:46:38;4.00;;;3.20;;
14342;SDS011;7255;53.596;9.960;2023-12-14T05:49:05;7.63;;;3.93;;
14342;SDS011;7255;53.596;9.960;2023-12-14T05:51:32;6.70;;;3.40;;
14342;SDS011;7255;53.596;9.960;2023-12-14T05:53:59;7.63;;;3.90;;
14342;SDS011;7255;53.596;9.960;2023-12-14T05:56:25;6.90;;;4.73;;
14342;SDS011;7255;53.596;9.960;2023-12-14T05:58:52;6.73;;;3.93;;
14342;SDS011;7255;53.596;9.960;2023-12-14T06:01:18;5.80;;;4.00;;
14342;SDS011;7255;53.596;9.960;2023-12-14T06:03:45;9.13;;;3.93;;
14342;SDS011;7255;53.596;9.960;2023-12-14T06:06:13;7.00;;;3.67;;
14342;SDS011;7255;53.596;9.960;2023-12-14T06:08:39;6.53;;;3.97;;
14342;SDS011;7255;53.596;9.960;2023-12-14T06:11:06;7.17;;;4.17;;
14342;SDS011;7255;53.596;9.960;2023-12-14T06:13:32;7.23;;;4.47;;
14342;SDS011;7255;53.596;9.960;2023-12-14T06:15:58;9.63;;;4.07;;
14342;SDS011;7255;53.596;9.960;2023-12-14T06:18:25;4.47;;;3.50;;
14342;SDS011;7255;53.596;9.960;2023-12-14T06:20:51;5.40;;;3.80;;
14342;SDS011;7255;53.596;9.960;2023-12-14T06:23:19;4.30;;;3.50;;
14342;SDS011;7255;53.596;9.960;2023-12-14T06:25:45;6.93;;;4.67;;
14342;SDS011;7255;53.596;9.960;2023-12-14T06:28:12;5.87;;;4.30;;
14342;SDS011;7255;53.596;9.960;2023-12-14T06:30:38;8.57;;;4.73;;
14342;SDS011;7255;53.596;9.960;2023-12-14T06:33:05;6.23;;;3.80;;
14342;SDS011;7255;53.596;9.960;2023-12-14T06:35:31;9.03;;;4.27;;
14342;SDS011;7255;53.596;9.960;2023-12-14T06:37:57;7.90;;;4.23;;
14342;SDS011;7255;53.596;9.960;2023-12-14T06:40:25;4.83;;;3.97;;
14342;SDS011;7255;53.596;9.960;2023-12-14T06:42:51;6.23;;;3.37;;
14342;SDS011;7255;53.596;9.960;2023-12-14T06:45:18;7.30;;;4.00;;
14342;SDS011;7255;53.596;9.960;2023-12-14T06:47:44;7.17;;;3.70;;
14342;SDS011;7255;53.596;9.960;2023-12-14T06:50:11;6.83;;;4.13;;
14342;SDS011;7255;53.596;9.960;2023-12-14T06:52:38;6.27;;;3.43;;
14342;SDS011;7255;53.596;9.960;2023-12-14T06:55:05;4.97;;;3.80;;
14342;SDS011;7255;53.596;9.960;2023-12-14T06:57:33;5.20;;;4.07;;
14342;SDS011;7255;53.596;9.960;2023-12-14T07:00:00;8.20;;;4.50;;
14342;SDS011;7255;53.596;9.960;2023-12-14T07:02:26;5.63;;;3.93;;
14342;SDS011;7255;53.596;9.960;2023-12-14T07:04:52;5.43;;;4.00;;
14342;SDS011;7255;53.596;9.960;2023-12-14T07:07:19;5.50;;;4.07;;
14342;SDS011;7255;53.596;9.960;2023-12-14T07:09:45;10.83;;;4.37;;
14342;SDS011;7255;53.596;9.960;2023-12-14T07:12:12;5.23;;;4.10;;
14342;SDS011;7255;53.596;9.960;2023-12-14T07:14:40;8.27;;;4.60;;
14342;SDS011;7255;53.596;9.960;2023-12-14T07:17:06;4.80;;;3.57;;
14342;SDS011;7255;53.596;9.960;2023-12-14T07:19:32;7.53;;;3.67;;
14342;SDS011;7255;53.596;9.960;2023-12-14T07:22:00;6.33;;;4.10;;
14342;SDS011;7255;53.596;9.960;2023-12-14T07:24:27;7.13;;;4.90;;
14342;SDS011;7255;53.596;9.960;2023-12-14T07:26:53;8.50;;;4.30;;
14342;SDS011;7255;53.596;9.960;2023-12-14T07:29:19;6.57;;;4.97;;
14342;SDS011;7255;53.596;9.960;2023-12-14T07:31:47;6.50;;;4.23;;
14342;SDS011;7255;53.596;9.960;2023-12-14T07:34:13;7.70;;;4.20;;
14342;SDS011;7255;53.596;9.960;2023-12-14T07:36:40;7.33;;;4.97;;
14342;SDS011;7255;53.596;9.960;2023-12-14T07:39:06;7.20;;;4.43;;
14342;SDS011;7255;53.596;9.960;2023-12-14T07:41:34;6.13;;;3.67;;
14342;SDS011;7255;53.596;9.960;2023-12-14T07:44:00;9.00;;;4.10;;
14342;SDS011;7255;53.596;9.960;2023-12-14T07:46:27;8.27;;;4.30;;
14342;SDS011;7255;53.596;9.960;2023-12-14T07:48:55;7.83;;;5.43;;
14342;SDS011;7255;53.596;9.960;2023-12-14T07:51:21;7.17;;;4.57;;
14342;SDS011;7255;53.596;9.960;2023-12-14T07:53:48;5.23;;;4.30;;
14342;SDS011;7255;53.596;9.960;2023-12-14T07:56:14;6.20;;;5.03;;
14342;SDS011;7255;53.596;9.960;2023-12-14T07:58:41;8.60;;;4.93;;
14342;SDS011;7255;53.596;9.960;2023-12-14T08:01:07;8.43;;;4.63;;
14342;SDS011;7255;53.596;9.960;2023-12-14T08:03:34;11.53;;;4.73;;
14342;SDS011;7255;53.596;9.960;2023-12-14T08:06:02;7.93;;;4.97;;
14342;SDS011;7255;53.596;9.960;2023-12-14T08:08:29;7.77;;;5.13;;
14342;SDS011;7255;53.596;9.960;2023-12-14T08:10:55;7.10;;;5.33;;
14342;SDS011;7255;53.596;9.960;2023-12-14T08:13:22;7.67;;;5.17;;
14342;SDS011;7255;53.596;9.960;2023-12-14T08:15:48;7.97;;;4.90;;
14342;SDS011;7255;53.596;9.960;2023-12-14T08:18:14;6.43;;;5.10;;
14342;SDS011;7255;53.596;9.960;2023-12-14T08:20:40;7.17;;;4.67;;
14342;SDS011;7255;53.596;9.960;2023-12-14T08:23:08;6.03;;;4.63;;
14342;SDS011;7255;53.596;9.960;2023-12-14T08:25:34;7.13;;;5.23;;
14342;SDS011;7255;53.596;9.960;2023-12-14T08:28:01;8.33;;;5.30;;
14342;SDS011;7255;53.596;9.960;2023-12-14T08:30:27;6.77;;;4.73;;
14342;SDS011;7255;53.596;9.960;2023-12-14T08:32:54;5.90;;;4.33;;
14342;SDS011;7255;53.596;9.960;2023-12-14T08:35:20;6.77;;;4.77;;
14342;SDS011;7255;53.596;9.960;2023-12-14T08:37:48;7.07;;;4.53;;
14342;SDS011;7255;53.596;9.960;2023-12-14T08:40:16;6.40;;;4.97;;
14342;SDS011;7255;53.596;9.960;2023-12-14T08:42:42;8.70;;;4.13;;
14342;SDS011;7255;53.596;9.960;2023-12-14T08:45:09;5.90;;;4.63;;
14342;SDS011;7255;53.596;9.960;2023-12-14T08:47:37;4.93;;;4.33;;
14342;SDS011;7255;53.596;9.960;2023-12-14T08:50:03;4.60;;;3.87;;
14342;SDS011;7255;53.596;9.960;2023-12-14T08:52:29;5.67;;;3.93;;
14342;SDS011;7255;53.596;9.960;2023-12-14T08:54:56;4.47;;;3.87;;
14342;SDS011;7255;53.596;9.960;2023-12-14T08:57:23;5.17;;;4.10;;
14342;SDS011;7255;53.596;9.960;2023-12-14T08:59:50;4.63;;;4.20;;
14342;SDS011;7255;53.596;9.960;2023-12-14T09:02:16;6.10;;;4.20;;
14342;SDS011;7255;53.596;9.960;2023-12-14T09:04:42;5.70;;;4.03;;
14342;SDS011;7255;53.596;9.960;2023-12-14T09:07:09;8.10;;;4.40;;
14342;SDS011;7255;53.596;9.960;2023-12-14T09:09:35;6.93;;;4.23;;
14342;SDS011;7255;53.596;9.960;2023-12-14T09:12:01;4.83;;;3.70;;
14342;SDS011;7255;53.596;9.960;2023-12-14T09:14:29;5.27;;;4.13;;
14342;SDS011;7255;53.596;9.960;2023-12-14T09:16:56;5.37;;;3.80;;
14342;SDS011;7255;53.596;9.960;2023-12-14T09:19:23;7.37;;;4.23;;
14342;SDS011;7255;53.596;9.960;2023-12-14T09:21:49;5.37;;;4.03;;
14342;SDS011;7255;53.596;9.960;2023-12-14T09:24:15;5.80;;;4.73;;
14342;SDS011;7255;53.596;9.960;2023-12-14T09:26:42;5.67;;;4.00;;
14342;SDS011;7255;53.596;9.960;2023-12-14T09:29:09;6.90;;;4.70;;
14342;SDS011;7255;53.596;9.960;2023-12-14T09:31:36;6.87;;;4.20;;
14342;SDS011;7255;53.596;9.960;2023-12-14T09:34:06;6.87;;;4.30;;
14342;SDS011;7255;53.596;9.960;2023-12-14T09:36:32;9.37;;;4.40;;
14342;SDS011;7255;53.596;9.960;2023-12-14T09:38:59;6.73;;;5.43;;
14342;SDS011;7255;53.596;9.960;2023-12-14T09:41:25;7.17;;;3.77;;
14342;SDS011;7255;53.596;9.960;2023-12-14T09:43:51;7.27;;;4.67;;
14342;SDS011;7255;53.596;9.960;2023-12-14T09:46:18;4.97;;;3.83;;
14342;SDS011;7255;53.596;9.960;2023-12-14T09:48:48;9.60;;;4.07;;
14342;SDS011;7255;53.596;9.960;2023-12-14T09:51:16;4.00;;;3.60;;
14342;SDS011;7255;53.596;9.960;2023-12-14T09:53:42;4.03;;;3.63;;
14342;SDS011;7255;53.596;9.960;2023-12-14T09:56:09;6.17;;;4.37;;
14342;SDS011;7255;53.596;9.960;2023-12-14T09:58:35;9.00;;;4.03;;
14342;SDS011;7255;53.596;9.960;2023-12-14T10:01:02;8.83;;;4.93;;
14342;SDS011;7255;53.596;9.960;2023-12-14T10:03:29;8.20;;;4.23;;
14342;SDS011;7255;53.596;9.960;2023-12-14T10:05:59;4.60;;;4.13;;
14342;SDS011;7255;53.596;9.960;2023-12-14T10:08:26;5.47;;;4.13;;
14342;SDS011;7255;53.596;9.960;2023-12-14T10:10:53;6.57;;;4.60;;
14342;SDS011;7255;53.596;9.960;2023-12-14T10:13:21;5.33;;;4.10;;
14342;SDS011;7255;53.596;9.960;2023-12-14T10:15:48;4.87;;;3.70;;
14342;SDS011;7255;53.596;9.960;2023-12-14T10:18:19;7.40;;;4.73;;
14342;SDS011;7255;53.596;9.960;2023-12-14T10:20:49;5.57;;;4.23;;
14342;SDS011;7255;53.596;9.960;2023-12-14T10:23:17;8.03;;;4.97;;
14342;SDS011;7255;53.596;9.960;2023-12-14T10:25:43;5.43;;;4.33;;
14342;SDS011;7255;53.596;9.960;2023-12-14T10:28:11;5.67;;;4.03;;
14342;SDS011;7255;53.596;9.960;2023-12-14T10:30:38;6.57;;;4.27;;
14342;SDS011;7255;53.596;9.960;2023-12-14T10:33:04;4.80;;;3.80;;
14342;SDS011;7255;53.596;9.960;2023-12-14T10:35:31;3.90;;;3.47;;
14342;SDS011;7255;53.596;9.960;2023-12-14T10:37:58;5.80;;;4.20;;
14342;SDS011;7255;53.596;9.960;2023-12-14T10:40:30;5.50;;;4.03;;
14342;SDS011;7255;53.596;9.960;2023-12-14T10:42:58;5.83;;;3.93;;
14342;SDS011;7255;53.596;9.960;2023-12-14T10:45:26;7.10;;;3.70;;
14342;SDS011;7255;53.596;9.960;2023-12-14T10:47:55;5.13;;;3.70;;
14342;SDS011;7255;53.596;9.960;2023-12-14T10:50:24;6.73;;;3.63;;
14342;SDS011;7255;53.596;9.960;2023-12-14T10:52:52;4.87;;;4.03;;
14342;SDS011;7255;53.596;9.960;2023-12-14T10:55:21;5.47;;;3.40;;
14342;SDS011;7255;53.596;9.960;2023-12-14T10:57:52;4.23;;;3.70;;
14342;SDS011;7255;53.596;9.960;2023-12-14T11:00:19;4.93;;;3.60;;
14342;SDS011;7255;53.596;9.960;2023-12-14T11:02:46;6.40;;;4.00;;
14342;SDS011;7255;53.596;9.960;2023-12-14T11:05:13;5.70;;;3.90;;
14342;SDS011;7255;53.596;9.960;2023-12-14T11:07:48;4.10;;;3.70;;
14342;SDS011;7255;53.596;9.960;2023-12-14T11:10:19;4.73;;;3.80;;
14342;SDS011;7255;53.596;9.960;2023-12-14T11:12:52;6.80;;;3.97;;
14342;SDS011;7255;53.596;9.960;2023-12-14T11:15:22;5.33;;;3.80;;
14342;SDS011;7255;53.596;9.960;2023-12-14T11:20:51;4.53;;;3.73;;
14342;SDS011;7255;53.596;9.960;2023-12-14T11:23:26;9.67;;;3.70;;
14342;SDS011;7255;53.596;9.960;2023-12-14T11:25:57;5.57;;;3.27;;
14342;SDS011;7255;53.596;9.960;2023-12-14T11:28:26;4.93;;;3.60;;
14342;SDS011;7255;53.596;9.960;2023-12-14T11:30:52;7.53;;;4.60;;
14342;SDS011;7255;53.596;9.960;2023-12-14T11:33:19;4.73;;;3.70;;
14342;SDS011;7255;53.596;9.960;2023-12-14T11:35:45;8.13;;;3.63;;
14342;SDS011;7255;53.596;9.960;2023-12-14T11:38:11;7.10;;;3.87;;
14342;SDS011;7255;53.596;9.960;2023-12-14T11:40:38;7.67;;;4.10;;
14342;SDS011;7255;53.596;9.960;2023-12-14T11:43:05;7.53;;;3.85;;
14342;SDS011;7255;53.596;9.960;2023-12-14T11:45:34;5.40;;;4.30;;
14342;SDS011;7255;53.596;9.960;2023-12-14T11:48:01;7.40;;;4.17;;
14342;SDS011;7255;53.596;9.960;2023-12-14T11:50:30;5.37;;;4.07;;
14342;SDS011;7255;53.596;9.960;2023-12-14T11:52:57;8.10;;;3.50;;
14342;SDS011;7255;53.596;9.960;2023-12-14T11:55:24;5.97;;;3.63;;
14342;SDS011;7255;53.596;9.960;2023-12-14T11:57:50;7.77;;;3.93;;
14342;SDS011;7255;53.596;9.960;2023-12-14T12:00:17;8.27;;;4.20;;
14342;SDS011;7255;53.596;9.960;2023-12-14T12:02:46;5.87;;;3.37;;
14342;SDS011;7255;53.596;9.960;2023-12-14T12:05:12;4.97;;;3.63;;
14342;SDS011;7255;53.596;9.960;2023-12-14T12:07:43;4.47;;;3.90;;
14342;SDS011;7255;53.596;9.960;2023-12-14T12:10:10;7.57;;;4.07;;
14342;SDS011;7255;53.596;9.960;2023-12-14T12:12:36;5.70;;;4.50;;
14342;SDS011;7255;53.596;9.960;2023-12-14T12:15:03;4.00;;;3.57;;
14342;SDS011;7255;53.596;9.960;2023-12-14T12:17:31;6.03;;;4.17;;
14342;SDS011;7255;53.596;9.960;2023-12-14T12:20:04;4.93;;;4.23;;
14342;SDS011;7255;53.596;9.960;2023-12-14T12:22:31;5.47;;;4.37;;
14342;SDS011;7255;53.596;9.960;2023-12-14T12:24:57;6.13;;;3.43;;
14342;SDS011;7255;53.596;9.960;2023-12-14T12:27:25;6.47;;;4.33;;
14342;SDS011;7255;53.596;9.960;2023-12-14T12:29:52;5.60;;;3.97;;
14342;SDS011;7255;53.596;9.960;2023-12-14T12:32:19;6.37;;;4.43;;
14342;SDS011;7255;53.596;9.960;2023-12-14T12:34:45;5.43;;;3.87;;
14342;SDS011;7255;53.596;9.960;2023-12-14T12:37:13;6.17;;;4.20;;
14342;SDS011;7255;53.596;9.960;2023-12-14T12:39:40;6.37;;;3.57;;
14342;SDS011;7255;53.596;9.960;2023-12-14T12:42:06;6.37;;;4.43;;
14342;SDS011;7255;53.596;9.960;2023-12-14T12:44:34;6.63;;;4.27;;
14342;SDS011;7255;53.596;9.960;2023-12-14T12:47:00;7.30;;;4.53;;
14342;SDS011;7255;53.596;9.960;2023-12-14T12:49:27;5.23;;;3.67;;
14342;SDS011;7255;53.596;9.960;2023-12-14T12:51:53;8.13;;;4.10;;
14342;SDS011;7255;53.596;9.960;2023-12-14T12:54:21;7.40;;;5.27;;
14342;SDS011;7255;53.596;9.960;2023-12-14T12:56:47;9.43;;;4.03;;
14342;SDS011;7255;53.596;9.960;2023-12-14T12:59:14;13.23;;;4.60;;
14342;SDS011;7255;53.596;9.960;2023-12-14T13:01:40;5.27;;;4.23;;
14342;SDS011;7255;53.596;9.960;2023-12-14T13:04:17;5.17;;;4.27;;
14342;SDS011;7255;53.596;9.960;2023-12-14T13:06:44;10.43;;;4.67;;
14342;SDS011;7255;53.596;9.960;2023-12-14T13:09:10;6.63;;;4.93;;
14342;SDS011;7255;53.596;9.960;2023-12-14T13:11:38;5.77;;;3.93;;
14342;SDS011;7255;53.596;9.960;2023-12-14T13:14:04;6.90;;;4.00;;
14342;SDS011;7255;53.596;9.960;2023-12-14T13:16:32;6.67;;;4.80;;
14342;SDS011;7255;53.596;9.960;2023-12-14T13:18:59;6.93;;;5.33;;
14342;SDS011;7255;53.596;9.960;2023-12-14T13:21:25;6.63;;;4.50;;
14342;SDS011;7255;53.596;9.960;2023-12-14T13:23:52;7.00;;;4.00;;
14342;SDS011;7255;53.596;9.960;2023-12-14T13:26:19;6.87;;;3.97;;
14342;SDS011;7255;53.596;9.960;2023-12-14T13:28:46;8.60;;;3.87;;
14342;SDS011;7255;53.596;9.960;2023-12-14T13:31:13;9.80;;;4.97;;
14342;SDS011;7255;53.596;9.960;2023-12-14T13:33:39;6.40;;;4.30;;
14342;SDS011;7255;53.596;9.960;2023-12-14T13:36:06;6.97;;;4.00;;
14342;SDS011;7255;53.596;9.960;2023-12-14T13:38:33;6.43;;;4.40;;
14342;SDS011;7255;53.596;9.960;2023-12-14T13:41:01;4.37;;;3.97;;
14342;SDS011;7255;53.596;9.960;2023-12-14T13:43:28;9.97;;;4.10;;
14342;SDS011;7255;53.596;9.960;2023-12-14T13:45:56;5.70;;;3.60;;
14342;SDS011;7255;53.596;9.960;2023-12-14T13:48:23;6.00;;;4.00;;
14342;SDS011;7255;53.596;9.960;2023-12-14T13:50:49;7.10;;;4.27;;
14342;SDS011;7255;53.596;9.960;2023-12-14T13:53:15;5.33;;;3.70;;
14342;SDS011;7255;53.596;9.960;2023-12-14T13:55:42;4.67;;;3.67;;
14342;SDS011;7255;53.596;9.960;2023-12-14T13:58:08;6.83;;;4.87;;
14342;SDS011;7255;53.596;9.960;2023-12-14T14:00:34;5.90;;;3.97;;
14342;SDS011;7255;53.596;9.960;2023-12-14T14:03:02;5.97;;;4.47;;
14342;SDS011;7255;53.596;9.960;2023-12-14T14:05:29;4.90;;;3.43;;
14342;SDS011;7255;53.596;9.960;2023-12-14T14:07:56;6.63;;;4.60;;
14342;SDS011;7255;53.596;9.960;2023-12-14T14:10:23;5.57;;;4.00;;
14342;SDS011;7255;53.596;9.960;2023-12-14T14:12:49;5.37;;;4.23;;
14342;SDS011;7255;53.596;9.960;2023-12-14T14:15:16;11.43;;;4.27;;
14342;SDS011;7255;53.596;9.960;2023-12-14T14:17:43;6.60;;;4.27;;
14342;SDS011;7255;53.596;9.960;2023-12-14T14:20:11;6.97;;;4.23;;
14342;SDS011;7255;53.596;9.960;2023-12-14T14:22:37;6.30;;;4.83;;
14342;SDS011;7255;53.596;9.960;2023-12-14T14:25:04;7.47;;;4.07;;
14342;SDS011;7255;53.596;9.960;2023-12-14T14:27:31;6.80;;;4.00;;
14342;SDS011;7255;53.596;9.960;2023-12-14T14:29:57;7.27;;;4.23;;
14342;SDS011;7255;53.596;9.960;2023-12-14T14:32:24;5.27;;;4.33;;
14342;SDS011;7255;53.596;9.960;2023-12-14T14:34:50;5.40;;;4.43;;
14342;SDS011;7255;53.596;9.960;2023-12-14T14:37:19;7.07;;;3.90;;
14342;SDS011;7255;53.596;9.960;2023-12-14T14:39:45;4.73;;;3.63;;
14342;SDS011;7255;53.596;9.960;2023-12-14T14:42:13;5.33;;;4.07;;
14342;SDS011;7255;53.596;9.960;2023-12-14T14:44:39;7.57;;;3.77;;
14342;SDS011;7255;53.596;9.960;2023-12-14T14:47:06;7.67;;;4.03;;
14342;SDS011;7255;53.596;9.960;2023-12-14T14:49:32;4.57;;;3.90;;
14342;SDS011;7255;53.596;9.960;2023-12-14T14:51:59;5.03;;;4.00;;
14342;SDS011;7255;53.596;9.960;2023-12-14T14:54:26;6.60;;;4.37;;
14342;SDS011;7255;53.596;9.960;2023-12-14T14:56:53;5.67;;;3.73;;
14342;SDS011;7255;53.596;9.960;2023-12-14T14:59:19;5.23;;;3.93;;
14342;SDS011;7255;53.596;9.960;2023-12-14T15:01:47;5.10;;;3.80;;